createdAt,value
2022-12-22T00:02:33.078Z,4.60
2022-12-22T00:05:18.203Z,3.95
2022-12-22T00:08:03.430Z,4.25
2022-12-22T00:10:49.962Z,3.78
2022-12-22T00:13:34.813Z,3.70
2022-12-22T00:16:19.641Z,3.60
2022-12-22T00:19:04.519Z,3.65
2022-12-22T00:21:49.721Z,3.47
2022-12-22T00:24:34.948Z,3.60
2022-12-22T00:27:21.546Z,3.25
2022-12-22T00:30:06.432Z,3.65
2022-12-22T00:32:52.247Z,3.70
2022-12-22T00:35:38.489Z,3.72
2022-12-22T00:38:29.773Z,3.47
2022-12-22T00:41:14.607Z,3.20
2022-12-22T00:44:01.252Z,3.30
2022-12-22T00:49:07.895Z,2.97
2022-12-22T00:51:52.764Z,3.05
2022-12-22T00:54:37.962Z,3.70
2022-12-22T00:57:22.875Z,3.38
2022-12-22T01:00:09.409Z,2.90
2022-12-22T01:02:54.376Z,3.03
2022-12-22T01:05:40.025Z,3.13
2022-12-22T01:08:26.699Z,2.90
2022-12-22T01:11:12.002Z,2.90
2022-12-22T01:13:56.757Z,2.90
2022-12-22T01:16:43.214Z,3.20
2022-12-22T01:19:28.056Z,2.80
2022-12-22T01:22:12.804Z,3.03
2022-12-22T01:24:57.775Z,2.80
2022-12-22T01:27:42.525Z,2.60
2022-12-22T01:30:28.896Z,3.08
2022-12-22T01:33:15.687Z,2.90
2022-12-22T01:36:00.404Z,3.08
2022-12-22T01:38:45.314Z,2.85
2022-12-22T01:41:33.244Z,2.97
2022-12-22T01:44:17.946Z,2.80
2022-12-22T01:47:03.840Z,2.90
2022-12-22T01:49:51.864Z,2.78
2022-12-22T01:52:38.065Z,2.90
2022-12-22T01:55:25.911Z,2.65
2022-12-22T01:58:10.621Z,2.70
2022-12-22T02:00:55.426Z,2.80
2022-12-22T02:03:40.889Z,2.60
2022-12-22T02:06:33.181Z,2.55
2022-12-22T02:09:27.083Z,2.42
2022-12-22T02:12:15.866Z,2.50
2022-12-22T02:15:03.087Z,2.70
2022-12-22T02:17:50.424Z,2.40
2022-12-22T02:20:55.391Z,2.47
2022-12-22T02:23:50.692Z,2.50
2022-12-22T02:26:42.103Z,2.50
2022-12-22T02:29:26.926Z,2.53
2022-12-22T02:32:12.214Z,2.42
2022-12-22T02:34:57.687Z,2.42
2022-12-22T02:37:44.379Z,2.40
2022-12-22T02:40:38.829Z,2.50
2022-12-22T02:43:30.814Z,2.28
2022-12-22T02:46:19.052Z,2.20
2022-12-22T02:49:05.491Z,2.70
2022-12-22T02:51:51.876Z,2.50
2022-12-22T02:54:37.161Z,2.50
2022-12-22T02:57:22.403Z,2.30
2022-12-22T03:00:08.854Z,2.13
2022-12-22T03:02:53.858Z,2.50
2022-12-22T03:05:38.925Z,2.50
2022-12-22T03:08:23.718Z,2.20
2022-12-22T03:11:08.563Z,2.20
2022-12-22T03:13:53.356Z,2.08
2022-12-22T03:16:40.059Z,2.20
2022-12-22T03:19:25.131Z,2.20
2022-12-22T03:22:09.931Z,2.28
2022-12-22T03:24:54.616Z,2.55
2022-12-22T03:27:21.970Z,2.30
2022-12-22T03:29:49.342Z,2.20
2022-12-22T03:32:18.038Z,2.15
2022-12-22T03:34:45.418Z,2.10
2022-12-22T03:37:12.788Z,2.05
2022-12-22T03:39:40.163Z,2.10
2022-12-22T03:42:25.372Z,2.10
2022-12-22T03:45:10.195Z,1.95
2022-12-22T03:47:38.894Z,2.20
2022-12-22T03:50:07.241Z,2.10
2022-12-22T03:52:34.615Z,1.83
2022-12-22T03:55:02.001Z,1.85
2022-12-22T03:57:29.379Z,1.90
2022-12-22T03:59:56.788Z,2.08
2022-12-22T04:02:24.230Z,1.90
2022-12-22T04:04:52.987Z,2.17
2022-12-22T04:07:20.358Z,2.25
2022-12-22T04:10:01.767Z,1.90
2022-12-22T04:12:46.851Z,2.03
2022-12-22T04:15:14.245Z,1.92
2022-12-22T04:17:41.633Z,1.95
2022-12-22T04:20:11.383Z,2.17
2022-12-22T04:22:38.752Z,2.00
2022-12-22T04:25:07.128Z,1.73
2022-12-22T04:27:34.683Z,1.90
2022-12-22T04:30:02.065Z,2.10
2022-12-22T04:32:29.421Z,1.90
2022-12-22T04:34:56.791Z,1.90
2022-12-22T04:37:25.512Z,1.83
2022-12-22T04:39:52.884Z,2.00
2022-12-22T04:42:20.256Z,2.00
2022-12-22T04:44:47.628Z,1.88
2022-12-22T04:47:15.133Z,2.13
2022-12-22T04:49:42.510Z,1.90
2022-12-22T04:52:09.888Z,1.88
2022-12-22T04:54:38.582Z,2.30
2022-12-22T04:57:05.964Z,1.90
2022-12-22T04:59:33.335Z,2.20
2022-12-22T05:02:00.799Z,2.00
2022-12-22T05:04:28.295Z,1.92
2022-12-22T05:06:55.682Z,2.03
2022-12-22T05:09:23.092Z,2.10
2022-12-22T05:11:51.809Z,1.75
2022-12-22T05:14:19.187Z,1.80
2022-12-22T05:16:46.623Z,1.77
2022-12-22T05:19:14.051Z,2.10
2022-12-22T05:21:41.441Z,1.83
2022-12-22T05:24:08.896Z,2.10
2022-12-22T05:26:36.317Z,2.17
2022-12-22T05:29:05.011Z,1.80
2022-12-22T05:31:32.438Z,1.70
2022-12-22T05:33:59.822Z,1.60
2022-12-22T05:36:27.246Z,1.77
2022-12-22T05:38:54.651Z,1.85
2022-12-22T05:41:22.031Z,1.90
2022-12-22T05:43:49.414Z,2.08
2022-12-22T05:46:18.319Z,2.10
2022-12-22T05:48:45.748Z,2.00
2022-12-22T05:51:13.153Z,1.90
2022-12-22T05:53:40.533Z,1.88
2022-12-22T05:56:08.715Z,1.75
2022-12-22T05:58:37.824Z,1.90
2022-12-22T06:01:05.707Z,1.80
2022-12-22T06:03:34.545Z,1.80
2022-12-22T06:06:02.008Z,1.83
2022-12-22T06:08:29.392Z,1.85
2022-12-22T06:10:57.049Z,2.00
2022-12-22T06:13:24.467Z,1.73
2022-12-22T06:15:51.920Z,1.80
2022-12-22T06:18:19.396Z,1.80
2022-12-22T06:20:48.127Z,1.83
2022-12-22T06:23:16.053Z,1.80
2022-12-22T06:25:43.464Z,1.77
2022-12-22T06:28:10.815Z,2.08
2022-12-22T06:30:38.206Z,2.10
2022-12-22T06:33:05.566Z,2.13
2022-12-22T06:35:32.964Z,1.95
2022-12-22T06:38:01.659Z,1.90
2022-12-22T06:40:29.059Z,2.08
2022-12-22T06:43:11.020Z,1.90
2022-12-22T06:45:39.313Z,2.22
2022-12-22T06:48:06.874Z,1.92
2022-12-22T06:50:34.357Z,2.08
2022-12-22T06:53:03.374Z,2.20
2022-12-22T06:55:30.753Z,1.63
2022-12-22T06:57:58.138Z,1.90
2022-12-22T07:00:25.834Z,2.00
2022-12-22T07:02:53.522Z,1.90
2022-12-22T07:05:21.067Z,1.90
2022-12-22T07:07:48.452Z,1.88
2022-12-22T07:10:17.216Z,1.73
2022-12-22T07:12:44.644Z,2.10
2022-12-22T07:15:12.026Z,2.08
2022-12-22T07:17:41.515Z,1.70
2022-12-22T07:20:10.093Z,1.80
2022-12-22T07:22:37.521Z,1.90
2022-12-22T07:25:05.476Z,1.77
2022-12-22T07:27:34.184Z,1.73
2022-12-22T07:30:01.586Z,1.80
2022-12-22T07:32:29.002Z,2.05
2022-12-22T07:35:00.067Z,1.75
2022-12-22T07:37:33.178Z,2.25
2022-12-22T07:40:00.539Z,1.77
2022-12-22T07:42:45.809Z,1.73
2022-12-22T07:45:14.767Z,1.90
2022-12-22T07:47:42.219Z,1.70
2022-12-22T07:50:25.382Z,1.80
2022-12-22T07:52:53.790Z,1.60
2022-12-22T07:55:21.258Z,2.00
2022-12-22T07:57:48.646Z,1.77
2022-12-22T08:00:18.108Z,1.90
2022-12-22T08:02:49.818Z,2.03
2022-12-22T08:05:17.439Z,1.70
2022-12-22T08:07:44.901Z,2.00
2022-12-22T08:10:12.495Z,1.52
2022-12-22T08:12:39.984Z,1.80
2022-12-22T08:15:08.536Z,1.80
2022-12-22T08:17:37.369Z,1.58
2022-12-22T08:20:05.454Z,1.50
2022-12-22T08:22:32.846Z,1.60
2022-12-22T08:25:00.229Z,2.00
2022-12-22T08:27:28.291Z,1.83
2022-12-22T08:29:57.383Z,1.73
2022-12-22T08:32:24.784Z,1.83
2022-12-22T08:34:53.551Z,1.80
2022-12-22T08:37:21.917Z,1.70
2022-12-22T08:39:50.368Z,1.80
2022-12-22T08:42:17.974Z,1.70
2022-12-22T08:44:45.898Z,1.90
2022-12-22T08:47:17.222Z,2.00
2022-12-22T08:49:44.853Z,1.58
2022-12-22T08:52:18.468Z,1.63
2022-12-22T08:54:46.619Z,1.83
2022-12-22T08:57:14.028Z,1.80
2022-12-22T08:59:41.436Z,1.70
2022-12-22T09:02:08.917Z,1.83
2022-12-22T09:04:36.545Z,1.80
2022-12-22T09:07:03.924Z,1.73
2022-12-22T09:09:33.586Z,1.80
2022-12-22T09:12:00.986Z,1.75
2022-12-22T09:14:28.420Z,1.70
2022-12-22T09:16:55.975Z,1.58
2022-12-22T09:19:23.463Z,1.55
2022-12-22T09:21:50.878Z,1.63
2022-12-22T09:24:19.133Z,1.55
2022-12-22T09:26:47.828Z,1.70
2022-12-22T09:29:16.011Z,1.65
2022-12-22T09:31:43.791Z,1.85
2022-12-22T09:34:17.248Z,1.80
2022-12-22T09:36:45.774Z,1.45
2022-12-22T09:39:13.148Z,1.70
2022-12-22T09:41:44.076Z,1.77
2022-12-22T09:44:16.333Z,1.52
2022-12-22T09:46:43.715Z,1.50
2022-12-22T09:49:12.236Z,1.75
2022-12-22T09:51:41.421Z,1.75
2022-12-22T09:54:10.462Z,1.50
2022-12-22T09:56:37.820Z,1.77
2022-12-22T09:59:09.502Z,1.60
2022-12-22T10:01:59.756Z,1.45
2022-12-22T10:04:33.971Z,1.73
2022-12-22T10:07:03.175Z,1.90
2022-12-22T10:09:50.795Z,1.70
2022-12-22T10:12:19.930Z,1.63
2022-12-22T10:14:48.140Z,1.63
2022-12-22T10:17:18.845Z,1.60
2022-12-22T10:19:46.713Z,1.88
2022-12-22T10:22:27.350Z,1.52
2022-12-22T10:24:54.792Z,1.70
2022-12-22T10:27:28.472Z,1.60
2022-12-22T10:29:56.799Z,1.40
2022-12-22T10:32:25.543Z,1.70
2022-12-22T10:35:00.295Z,1.55
2022-12-22T10:37:32.512Z,1.33
2022-12-22T10:40:00.291Z,1.35
2022-12-22T10:42:27.706Z,1.60
2022-12-22T10:44:55.323Z,1.48
2022-12-22T10:47:23.854Z,1.40
2022-12-22T10:52:25.595Z,1.63
2022-12-22T10:55:14.707Z,1.30
2022-12-22T10:57:42.168Z,1.40
2022-12-22T11:00:24.071Z,1.52
2022-12-22T11:02:52.107Z,1.45
2022-12-22T11:05:20.844Z,1.70
2022-12-22T11:07:48.221Z,1.63
2022-12-22T11:10:20.731Z,1.50
2022-12-22T11:13:02.186Z,1.70
2022-12-22T11:15:32.519Z,1.40
2022-12-22T11:18:02.736Z,1.52
2022-12-22T11:23:09.563Z,1.73
2022-12-22T11:28:14.926Z,1.48
2022-12-22T11:30:47.158Z,1.38
2022-12-22T11:33:22.580Z,1.48
2022-12-22T11:35:57.675Z,1.30
2022-12-22T11:38:35.566Z,1.40
2022-12-22T11:41:07.137Z,1.30
2022-12-22T11:43:39.938Z,1.50
2022-12-22T11:46:16.089Z,1.50
2022-12-22T11:48:51.459Z,1.40
2022-12-22T11:51:27.362Z,1.48
2022-12-22T11:54:10.594Z,1.63
2022-12-22T11:56:39.762Z,1.60
2022-12-22T11:59:16.456Z,1.63
2022-12-22T12:01:51.462Z,1.63
2022-12-22T12:04:32.867Z,1.60
2022-12-22T12:07:21.962Z,1.45
2022-12-22T12:09:57.367Z,2.03
2022-12-22T12:12:27.877Z,1.70
2022-12-22T12:14:59.650Z,1.90
2022-12-22T12:17:33.571Z,1.60
2022-12-22T12:20:08.988Z,1.80
2022-12-22T12:22:43.709Z,1.80
2022-12-22T12:25:23.771Z,2.00
2022-12-22T12:28:00.156Z,1.80
2022-12-22T12:30:42.942Z,1.80
2022-12-22T12:33:13.996Z,1.70
2022-12-22T12:35:47.602Z,1.55
2022-12-22T12:38:56.400Z,1.70
2022-12-22T12:41:07.923Z,1.90
2022-12-22T12:43:35.388Z,1.60
2022-12-22T12:46:02.802Z,1.80
2022-12-22T12:48:40.474Z,1.90
2022-12-22T12:51:44.992Z,2.10
2022-12-22T12:54:40.726Z,1.63
2022-12-22T12:57:38.375Z,1.70
2022-12-22T13:00:06.988Z,1.70
2022-12-22T13:02:39.095Z,1.70
2022-12-22T13:05:36.297Z,1.90
2022-12-22T13:08:17.623Z,1.90
2022-12-22T13:10:50.456Z,1.80
2022-12-22T13:13:46.356Z,1.67
2022-12-22T13:16:31.157Z,1.88
2022-12-22T13:18:59.950Z,2.10
2022-12-22T13:24:25.940Z,2.17
2022-12-22T13:26:56.030Z,1.85
2022-12-22T13:29:32.838Z,2.05
2022-12-22T13:32:01.997Z,2.10
2022-12-22T13:34:57.250Z,2.00
2022-12-22T13:37:26.894Z,2.30
2022-12-22T13:40:22.072Z,2.50
2022-12-22T13:42:52.269Z,2.30
2022-12-22T13:47:48.892Z,1.98
2022-12-22T13:50:21.341Z,2.38
2022-12-22T13:52:48.908Z,2.63
2022-12-22T13:55:16.669Z,2.17
2022-12-22T13:57:44.021Z,2.55
2022-12-22T14:00:23.526Z,2.60
2022-12-22T14:02:51.019Z,2.15
2022-12-22T14:05:18.466Z,2.60
2022-12-22T14:07:59.465Z,2.38
2022-12-22T14:10:28.779Z,2.80
2022-12-22T14:12:56.142Z,2.50
2022-12-22T14:15:24.827Z,2.40
2022-12-22T14:17:53.411Z,3.88
2022-12-22T14:20:22.750Z,2.90
2022-12-22T14:22:51.745Z,2.63
2022-12-22T14:25:20.278Z,3.00
2022-12-22T14:27:48.960Z,2.90
2022-12-22T14:30:18.492Z,2.70
2022-12-22T14:32:54.396Z,2.45
2022-12-22T14:35:26.154Z,2.80
2022-12-22T14:37:54.270Z,2.90
2022-12-22T14:40:32.442Z,2.60
2022-12-22T14:43:00.458Z,2.63
2022-12-22T14:45:27.904Z,2.80
2022-12-22T14:47:56.626Z,2.85
2022-12-22T14:50:24.740Z,3.10
2022-12-22T14:52:52.849Z,3.03
2022-12-22T14:55:26.496Z,3.28
2022-12-22T14:57:55.745Z,3.30
2022-12-22T15:00:30.159Z,3.30
2022-12-22T15:02:59.839Z,3.97
2022-12-22T15:05:28.287Z,3.95
2022-12-22T15:08:06.657Z,3.28
2022-12-22T15:10:38.498Z,4.50
2022-12-22T15:13:06.954Z,3.17
2022-12-22T15:15:34.332Z,3.20
2022-12-22T15:18:03.050Z,3.78
2022-12-22T15:20:36.984Z,3.38
2022-12-22T15:23:11.038Z,3.65
2022-12-22T15:25:38.421Z,3.50
2022-12-22T15:28:05.955Z,3.25
2022-12-22T15:30:33.420Z,3.47
2022-12-22T15:33:00.826Z,3.50
2022-12-22T15:35:30.698Z,3.58
2022-12-22T15:37:58.179Z,3.60
2022-12-22T15:40:25.741Z,3.53
2022-12-22T15:42:53.219Z,3.50
2022-12-22T15:45:21.517Z,3.83
2022-12-22T15:47:49.746Z,4.15
2022-12-22T15:50:18.313Z,3.90
2022-12-22T15:52:49.397Z,3.42
2022-12-22T15:55:16.948Z,3.78
2022-12-22T15:57:44.654Z,4.25
2022-12-22T16:00:13.411Z,3.67
2022-12-22T16:02:40.959Z,3.90
2022-12-22T16:05:09.196Z,3.80
2022-12-22T16:07:36.599Z,4.28
2022-12-22T16:10:06.255Z,4.15
2022-12-22T16:12:34.180Z,4.47
2022-12-22T16:15:01.630Z,5.07
2022-12-22T16:17:29.514Z,4.90
2022-12-22T16:19:56.886Z,5.00
2022-12-22T16:22:30.111Z,4.82
2022-12-22T16:24:57.512Z,5.03
2022-12-22T16:27:26.232Z,4.55
2022-12-22T16:29:53.986Z,4.80
2022-12-22T16:32:24.627Z,5.47
2022-12-22T16:34:52.030Z,5.50
2022-12-22T16:37:19.434Z,4.88
2022-12-22T16:39:47.123Z,5.95
2022-12-22T16:45:02.978Z,5.28
2022-12-22T16:47:33.449Z,5.22
2022-12-22T16:50:00.910Z,5.32
2022-12-22T16:52:31.807Z,5.10
2022-12-22T16:54:59.171Z,5.75
2022-12-22T16:57:26.557Z,5.28
2022-12-22T16:59:53.957Z,5.10
2022-12-22T17:02:24.681Z,5.07
2022-12-22T17:04:52.235Z,5.88
2022-12-22T17:07:19.611Z,5.43
2022-12-22T17:09:48.701Z,6.03
2022-12-22T17:12:17.565Z,9.32
2022-12-22T17:14:44.957Z,9.20
2022-12-22T17:17:15.763Z,8.25
2022-12-22T17:19:44.500Z,9.30
2022-12-22T17:22:20.425Z,9.45
2022-12-22T17:24:47.789Z,9.82
2022-12-22T17:27:15.295Z,11.82
2022-12-22T17:29:42.670Z,9.63
2022-12-22T17:32:12.072Z,10.77
2022-12-22T17:34:39.457Z,11.48
2022-12-22T17:37:10.833Z,10.52
2022-12-22T17:39:39.060Z,10.23
2022-12-22T17:42:15.764Z,10.38
2022-12-22T17:44:43.192Z,10.77
2022-12-22T17:47:12.203Z,10.07
2022-12-22T17:49:39.633Z,10.43
2022-12-22T17:52:07.007Z,8.85
2022-12-22T17:54:35.706Z,9.57
2022-12-22T17:57:04.180Z,10.00
2022-12-22T17:59:31.649Z,10.02
2022-12-22T18:02:00.372Z,9.63
2022-12-22T18:04:27.935Z,9.38
2022-12-22T18:06:55.836Z,9.52
2022-12-22T18:09:25.127Z,9.38
2022-12-22T18:11:53.831Z,9.87
2022-12-22T18:14:21.932Z,9.23
2022-12-22T18:16:49.381Z,9.18
2022-12-22T18:19:16.827Z,9.70
2022-12-22T18:21:44.224Z,8.80
2022-12-22T18:24:15.483Z,9.43
2022-12-22T18:26:42.910Z,9.80
2022-12-22T18:29:14.369Z,8.88
2022-12-22T18:31:41.809Z,9.15
2022-12-22T18:34:09.223Z,9.65
2022-12-22T18:36:36.995Z,10.55
2022-12-22T18:39:04.574Z,9.88
2022-12-22T18:41:34.618Z,8.93
2022-12-22T18:44:01.997Z,9.77
2022-12-22T18:46:30.772Z,9.40
2022-12-22T18:49:05.000Z,8.48
2022-12-22T18:51:33.148Z,9.40
2022-12-22T18:54:00.557Z,11.02
2022-12-22T18:56:27.939Z,9.40
2022-12-22T18:58:55.452Z,10.18
2022-12-22T19:01:23.655Z,9.10
2022-12-22T19:03:53.489Z,9.88
2022-12-22T19:06:21.696Z,10.13
2022-12-22T19:08:49.248Z,11.23
2022-12-22T19:11:17.158Z,10.43
2022-12-22T19:13:45.530Z,9.55
2022-12-22T19:16:13.678Z,10.13
2022-12-22T19:18:41.660Z,10.90
2022-12-22T19:21:12.752Z,11.00
2022-12-22T19:23:40.151Z,10.02
2022-12-22T19:26:09.383Z,10.15
2022-12-22T19:28:38.390Z,9.40
2022-12-22T19:31:06.409Z,10.00
2022-12-22T19:33:35.756Z,9.57
2022-12-22T19:36:03.183Z,10.27
2022-12-22T19:38:32.812Z,9.90
2022-12-22T19:41:02.254Z,9.57
2022-12-22T19:43:29.698Z,10.75
2022-12-22T19:45:57.226Z,9.98
2022-12-22T19:48:25.764Z,9.98
2022-12-22T19:50:53.323Z,9.57
2022-12-22T19:53:20.895Z,9.73
2022-12-22T19:55:55.010Z,8.82
2022-12-22T19:58:24.445Z,9.10
2022-12-22T20:00:52.672Z,9.32
2022-12-22T20:03:21.837Z,9.45
2022-12-22T20:05:49.343Z,7.40
2022-12-22T20:08:16.778Z,9.27
2022-12-22T20:10:44.293Z,9.23
2022-12-22T20:13:15.836Z,9.30
2022-12-22T20:15:43.440Z,9.93
2022-12-22T20:18:15.364Z,10.77
2022-12-22T20:20:42.739Z,9.30
2022-12-22T20:23:13.096Z,9.88
2022-12-22T20:25:41.852Z,9.95
2022-12-22T20:28:16.229Z,9.73
2022-12-22T20:30:43.835Z,10.15
2022-12-22T20:33:12.092Z,9.75
2022-12-22T20:35:39.600Z,9.38
2022-12-22T20:38:13.761Z,9.23
2022-12-22T20:40:41.151Z,9.18
2022-12-22T20:43:13.577Z,9.32
2022-12-22T20:45:41.180Z,8.50
2022-12-22T20:48:14.063Z,8.80
2022-12-22T20:50:41.474Z,9.10
2022-12-22T20:53:10.227Z,8.65
2022-12-22T20:55:37.634Z,8.38
2022-12-22T20:58:07.281Z,7.75
2022-12-22T21:00:36.392Z,7.90
2022-12-22T21:03:03.981Z,8.43
2022-12-22T21:05:31.412Z,8.27
2022-12-22T21:07:58.822Z,7.97
2022-12-22T21:10:26.924Z,7.40
2022-12-22T21:12:54.407Z,7.97
2022-12-22T21:15:23.144Z,7.50
2022-12-22T21:17:58.104Z,7.75
2022-12-22T21:20:27.322Z,7.88
2022-12-22T21:22:54.792Z,7.15
2022-12-22T21:25:22.404Z,7.28
2022-12-22T21:27:50.066Z,7.13
2022-12-22T21:30:18.488Z,6.80
2022-12-22T21:32:46.047Z,7.18
2022-12-22T21:35:15.647Z,6.80
2022-12-22T21:37:43.472Z,7.43
2022-12-22T21:40:21.605Z,6.88
2022-12-22T21:42:49.171Z,7.13
2022-12-22T21:45:17.464Z,6.75
2022-12-22T21:47:44.860Z,6.70
2022-12-22T21:50:19.335Z,7.03
2022-12-22T21:52:50.133Z,6.70
2022-12-22T21:55:19.165Z,6.00
2022-12-22T21:57:46.618Z,7.10
2022-12-22T22:00:15.050Z,6.70
2022-12-22T22:02:42.573Z,6.72
2022-12-22T22:05:21.408Z,6.85
2022-12-22T22:07:48.871Z,6.63
2022-12-22T22:10:17.297Z,6.43
2022-12-22T22:12:45.186Z,6.13
2022-12-22T22:15:13.553Z,6.63
2022-12-22T22:17:41.189Z,5.90
2022-12-22T22:20:10.052Z,5.78
2022-12-22T22:22:38.824Z,6.50
2022-12-22T22:25:07.169Z,6.47
2022-12-22T22:27:34.569Z,6.43
2022-12-22T22:30:02.017Z,5.25
2022-12-22T22:32:29.446Z,6.13
2022-12-22T22:34:56.861Z,5.25
2022-12-22T22:37:24.235Z,6.35
2022-12-22T22:39:52.953Z,5.68
2022-12-22T22:42:20.338Z,5.43
2022-12-22T22:44:47.741Z,4.95
2022-12-22T22:47:15.159Z,5.43
2022-12-22T22:49:42.613Z,5.88
2022-12-22T22:52:10.059Z,5.32
2022-12-22T22:54:37.678Z,5.50
2022-12-22T22:57:06.383Z,5.40
2022-12-22T22:59:33.810Z,5.45
2022-12-22T23:02:01.306Z,5.60
2022-12-22T23:04:28.984Z,5.00
2022-12-22T23:06:56.504Z,4.68
2022-12-22T23:09:24.012Z,5.20
2022-12-22T23:11:51.891Z,5.10
2022-12-22T23:14:20.854Z,5.38
2022-12-22T23:16:48.605Z,4.75
2022-12-22T23:19:16.167Z,4.63
2022-12-22T23:21:43.662Z,4.80
2022-12-22T23:24:11.099Z,4.93
2022-12-22T23:26:38.649Z,5.00
2022-12-22T23:29:06.114Z,5.18
2022-12-22T23:31:35.128Z,4.72
2022-12-22T23:34:02.625Z,4.97
2022-12-22T23:36:30.085Z,4.55
2022-12-22T23:38:57.576Z,4.40
2022-12-22T23:41:24.980Z,4.75
2022-12-22T23:43:53.692Z,4.45
2022-12-22T23:46:21.182Z,4.85
2022-12-22T23:48:52.679Z,4.40
2022-12-22T23:51:20.427Z,4.72
2022-12-22T23:53:47.862Z,4.70
2022-12-22T23:56:15.401Z,4.20
2022-12-22T23:58:42.939Z,4.10
